CMB830 Details

Departure: Keflavík International Airport (BIKF)
Arrival: Joint Base McGuire Dix Lakehurst (KWRI) at N/A
Route: RALOV1D RALOV RAKIS 6235N N6040 5944N 5650N YAY J580 YQY YQI J585 ACK J62 RIFLE J174 EMJAY HEADI
Notes: USTRANSCOM CONTRACT FLIGHT


Current Weather Information
BIKF 191530Z 02011KT CAVOK 12/03 Q1008
KWRI 191556Z 28009KT 10SM BKN027 32/24 A2999 RMK AO2A SLP154 T03160239 $